createdAt,value
2023-04-29T00:01:33.686Z,99793.86
2023-04-29T00:04:01.807Z,99791.70
2023-04-29T00:06:30.769Z,99790.75
2023-04-29T00:08:58.666Z,99786.77
2023-04-29T00:11:26.425Z,99786.27
2023-04-29T00:13:54.119Z,99784.67
2023-04-29T00:16:22.100Z,99782.66
2023-04-29T00:18:50.169Z,99774.83
2023-04-29T00:21:19.392Z,99772.80
2023-04-29T00:23:47.188Z,99770.77
2023-04-29T00:26:15.158Z,99775.73
2023-04-29T00:28:45.204Z,99771.77
2023-04-29T00:31:14.529Z,99769.27
2023-04-29T00:33:42.669Z,99767.09
2023-04-29T00:36:10.584Z,99763.99
2023-04-29T00:38:38.353Z,99760.80
2023-04-29T00:41:06.377Z,99761.34
2023-04-29T00:43:34.121Z,99759.80
2023-04-29T00:46:02.148Z,99760.65
2023-04-29T00:48:30.299Z,99762.98
2023-04-29T00:50:58.099Z,99762.25
2023-04-29T00:53:26.010Z,99758.13
2023-04-29T00:55:54.510Z,99757.58
2023-04-29T00:58:24.033Z,99754.39
2023-04-29T01:00:52.918Z,99758.72
2023-04-29T01:03:23.060Z,99756.46
2023-04-29T01:06:01.806Z,99759.97
2023-04-29T01:08:47.198Z,99753.40
2023-04-29T01:11:16.973Z,99752.60
2023-04-29T01:13:50.842Z,99753.86
2023-04-29T01:16:26.119Z,99753.70
2023-04-29T01:18:59.048Z,99751.51
2023-04-29T01:21:32.207Z,99753.70
2023-04-29T01:24:02.003Z,99755.68
2023-04-29T01:26:33.419Z,99755.81
2023-04-29T01:29:39.407Z,99752.80
2023-04-29T01:32:14.445Z,99756.73
2023-04-29T01:35:01.811Z,99750.59
2023-04-29T01:37:42.732Z,99753.28
2023-04-29T01:40:16.811Z,99752.77
2023-04-29T01:43:01.989Z,99750.72
2023-04-29T01:45:32.699Z,99748.83
2023-04-29T01:48:00.961Z,99746.40
2023-04-29T01:50:29.124Z,99747.33
2023-04-29T01:53:01.894Z,99750.26
2023-04-29T01:55:30.235Z,99745.10
2023-04-29T01:58:13.213Z,99751.02
2023-04-29T02:01:07.129Z,99750.71
2023-04-29T02:03:36.615Z,99750.55
2023-04-29T02:06:07.225Z,99748.86
2023-04-29T02:08:35.462Z,99747.25
2023-04-29T02:11:03.456Z,99749.73
2023-04-29T02:13:49.399Z,99750.61
2023-04-29T02:16:18.921Z,99748.40
2023-04-29T02:19:07.045Z,99746.90
2023-04-29T02:21:35.346Z,99744.72
2023-04-29T02:24:03.901Z,99744.75
2023-04-29T02:26:32.701Z,99743.59
2023-04-29T02:29:00.594Z,99742.66
2023-04-29T02:31:29.262Z,99734.23
2023-04-29T02:33:57.382Z,99735.81
2023-04-29T02:36:25.469Z,99735.71
2023-04-29T02:38:55.929Z,99731.02
2023-04-29T02:41:23.848Z,99727.05
2023-04-29T02:43:51.658Z,99727.33
2023-04-29T02:46:19.879Z,99731.70
2023-04-29T02:48:47.856Z,99731.21
2023-04-29T02:51:16.254Z,99726.85
2023-04-29T02:53:44.286Z,99724.88
2023-04-29T02:56:12.329Z,99719.39
2023-04-29T02:58:40.401Z,99722.16
2023-04-29T03:01:08.299Z,99721.57
2023-04-29T03:03:36.445Z,99720.85
2023-04-29T03:06:04.689Z,99717.84
2023-04-29T03:08:32.752Z,99711.35
2023-04-29T03:11:00.567Z,99712.06
2023-04-29T03:13:28.435Z,99713.48
2023-04-29T03:15:58.678Z,99716.13
2023-04-29T03:18:26.743Z,99715.55
2023-04-29T03:20:54.616Z,99715.06
2023-04-29T03:23:22.560Z,99713.92
2023-04-29T03:25:53.090Z,99717.75
2023-04-29T03:28:21.134Z,99715.84
2023-04-29T03:30:49.370Z,99710.98
2023-04-29T03:33:17.251Z,99709.23
2023-04-29T03:35:45.857Z,99704.38
2023-04-29T03:38:22.452Z,99697.73
2023-04-29T03:40:50.562Z,99698.04
2023-04-29T03:43:18.541Z,99703.06
2023-04-29T03:45:46.835Z,99704.36
2023-04-29T03:48:17.222Z,99711.14
2023-04-29T03:50:45.143Z,99711.03
2023-04-29T03:53:14.418Z,99707.02
2023-04-29T03:55:43.036Z,99708.08
2023-04-29T03:58:11.206Z,99704.91
2023-04-29T04:00:39.078Z,99696.88
2023-04-29T04:03:09.350Z,99688.48
2023-04-29T04:05:38.590Z,99683.54
2023-04-29T04:08:10.960Z,99691.05
2023-04-29T04:10:47.790Z,99697.80
2023-04-29T04:13:24.837Z,99703.52
2023-04-29T04:15:52.760Z,99706.77
2023-04-29T04:18:20.659Z,99710.95
2023-04-29T04:20:48.498Z,99713.59
2023-04-29T04:23:16.448Z,99714.34
2023-04-29T04:25:48.744Z,99714.65
2023-04-29T04:28:40.371Z,99718.99
2023-04-29T04:31:16.708Z,99719.16
2023-04-29T04:33:44.498Z,99722.39
2023-04-29T04:36:13.573Z,99722.05
2023-04-29T04:38:41.874Z,99721.98
2023-04-29T04:41:12.318Z,99718.34
2023-04-29T04:43:41.527Z,99717.86
2023-04-29T04:46:17.447Z,99718.80
2023-04-29T04:48:54.472Z,99716.63
2023-04-29T04:51:22.946Z,99715.80
2023-04-29T04:53:51.735Z,99714.35
2023-04-29T04:56:22.120Z,99715.41
2023-04-29T04:58:50.370Z,99712.39
2023-04-29T05:01:18.184Z,99706.38
2023-04-29T05:03:46.083Z,99706.83
2023-04-29T05:06:14.811Z,99702.16
2023-04-29T05:08:43.776Z,99709.65
2023-04-29T05:11:19.576Z,99702.64
2023-04-29T05:13:54.880Z,99703.83
2023-04-29T05:16:22.809Z,99699.17
2023-04-29T05:18:50.720Z,99697.54
2023-04-29T05:21:18.662Z,99694.60
2023-04-29T05:23:46.677Z,99698.95
2023-04-29T05:26:14.492Z,99701.95
2023-04-29T05:28:42.823Z,99703.31
2023-04-29T05:31:11.498Z,99703.19
2023-04-29T05:33:39.416Z,99705.08
2023-04-29T05:36:07.518Z,99704.55
2023-04-29T05:38:36.113Z,99712.47
2023-04-29T05:41:06.312Z,99715.48
2023-04-29T05:43:43.322Z,99718.32
2023-04-29T05:46:14.948Z,99719.24
2023-04-29T05:48:43.225Z,99720.83
2023-04-29T05:51:12.689Z,99720.16
2023-04-29T05:53:40.808Z,99722.65
2023-04-29T05:56:08.881Z,99724.27
2023-04-29T05:58:37.329Z,99722.73
2023-04-29T06:01:05.446Z,99722.81
2023-04-29T06:03:34.621Z,99725.61
2023-04-29T06:06:26.358Z,99732.27
2023-04-29T06:09:08.440Z,99735.59
2023-04-29T06:11:41.788Z,99732.55
2023-04-29T06:14:09.630Z,99729.55
2023-04-29T06:16:37.757Z,99732.30
2023-04-29T06:19:05.637Z,99730.55
2023-04-29T06:21:33.424Z,99737.48
2023-04-29T06:24:01.355Z,99740.84
2023-04-29T06:26:29.258Z,99744.71
2023-04-29T06:28:57.429Z,99749.75
2023-04-29T06:31:25.258Z,99755.33
2023-04-29T06:33:56.259Z,99751.71
2023-04-29T06:36:24.931Z,99753.55
2023-04-29T06:39:24.938Z,99759.09
2023-04-29T06:42:19.552Z,99757.88
2023-04-29T06:45:06.671Z,99756.48
2023-04-29T06:47:46.659Z,99762.73
2023-04-29T06:50:23.077Z,99758.70
2023-04-29T06:52:51.022Z,99760.42
2023-04-29T06:55:18.903Z,99753.73
2023-04-29T06:57:46.813Z,99752.03
2023-04-29T07:00:16.011Z,99747.75
2023-04-29T07:02:43.862Z,99745.13
2023-04-29T07:05:11.821Z,99740.66
2023-04-29T07:07:40.020Z,99742.69
2023-04-29T07:10:08.082Z,99738.12
2023-04-29T07:12:37.460Z,99737.16
2023-04-29T07:15:05.812Z,99736.94
2023-04-29T07:17:33.708Z,99733.01
2023-04-29T07:20:02.082Z,99734.89
2023-04-29T07:22:29.992Z,99734.52
2023-04-29T07:24:57.883Z,99735.67
2023-04-29T07:27:26.864Z,99733.13
2023-04-29T07:29:54.671Z,99741.17
2023-04-29T07:32:22.770Z,99742.14
2023-04-29T07:34:52.731Z,99740.17
2023-04-29T07:37:22.053Z,99742.19
2023-04-29T07:39:50.654Z,99745.73
2023-04-29T07:42:19.270Z,99748.53
2023-04-29T07:44:47.268Z,99748.73
2023-04-29T07:47:15.157Z,99751.69
2023-04-29T07:49:43.283Z,99755.09
2023-04-29T07:52:11.036Z,99753.38
2023-04-29T07:54:39.064Z,99752.63
2023-04-29T07:57:06.983Z,99757.67
2023-04-29T07:59:34.696Z,99762.66
2023-04-29T13:02:38.749Z,99764.64
2023-04-29T13:05:07.782Z,99760.73
2023-04-29T13:07:37.108Z,99765.91
2023-04-29T13:10:08.905Z,99771.63
2023-04-29T13:12:39.256Z,99771.85
2023-04-29T13:15:10.386Z,99788.92
2023-04-29T13:17:38.217Z,99797.73
2023-04-29T13:20:06.792Z,99797.61
2023-04-29T13:22:34.578Z,99796.02
2023-04-29T13:25:02.359Z,99793.91
2023-04-29T13:27:30.529Z,99793.73
2023-04-29T13:29:58.385Z,99796.38
2023-04-29T13:32:26.333Z,99791.14
2023-04-29T13:34:54.817Z,99789.95
2023-04-29T13:37:22.912Z,99782.64
2023-04-29T13:39:56.999Z,99785.98
2023-04-29T13:42:27.166Z,99787.39
2023-04-29T13:44:58.029Z,99791.79
2023-04-29T13:47:28.219Z,99788.02
2023-04-29T13:50:39.926Z,99791.59
2023-04-29T13:56:07.578Z,99787.45
2023-04-29T14:01:10.055Z,99782.96
2023-04-29T14:03:27.405Z,99783.86
2023-04-29T14:05:55.513Z,99783.76
2023-04-29T14:08:23.602Z,99784.91
2023-04-29T14:10:51.441Z,99788.77
2023-04-29T14:13:19.465Z,99783.04
2023-04-29T14:15:47.534Z,99788.05
2023-04-29T14:18:17.763Z,99800.67
2023-04-29T14:20:45.524Z,99817.47
2023-04-29T14:23:13.322Z,99822.74
2023-04-29T14:25:41.118Z,99829.02
2023-04-29T14:28:09.366Z,99826.28
2023-04-29T14:30:37.449Z,99825.41
2023-04-29T14:33:05.535Z,99828.48
2023-04-29T14:35:33.696Z,99826.30
2023-04-29T14:38:02.755Z,99818.63
2023-04-29T14:40:31.340Z,99816.89
2023-04-29T14:42:59.291Z,99819.91
2023-04-29T14:45:28.336Z,99824.27
2023-04-29T14:47:59.096Z,99825.89
2023-04-29T14:50:28.157Z,99829.73
2023-04-29T14:52:57.897Z,99834.47
2023-04-29T14:55:25.784Z,99836.41
2023-04-29T14:57:53.800Z,99843.45
2023-04-29T15:00:22.041Z,99840.83
2023-04-29T15:02:55.675Z,99850.61
2023-04-29T15:05:24.159Z,99849.41
2023-04-29T15:07:52.392Z,99849.77
2023-04-29T15:10:20.464Z,99852.92
2023-04-29T15:12:48.428Z,99865.43
2023-04-29T15:15:16.333Z,99868.32
2023-04-29T15:17:44.958Z,99871.64
2023-04-29T15:20:13.647Z,99872.13
2023-04-29T15:22:41.521Z,99872.70
2023-04-29T15:25:09.945Z,99874.58
2023-04-29T15:27:38.325Z,99875.21
2023-04-29T15:30:07.314Z,99875.52
2023-04-29T15:32:35.170Z,99877.77
2023-04-29T15:35:04.138Z,99877.34
2023-04-29T15:37:32.195Z,99880.92
2023-04-29T15:40:01.010Z,99879.86
2023-04-29T15:42:28.983Z,99885.12
2023-04-29T15:44:57.182Z,99893.38
2023-04-29T15:47:25.260Z,99892.30
2023-04-29T15:49:53.721Z,99897.27
2023-04-29T15:52:22.973Z,99899.76
2023-04-29T15:54:50.829Z,99905.11
2023-04-29T15:57:18.901Z,99904.06
2023-04-29T15:59:46.822Z,99904.43
2023-04-29T16:02:15.317Z,99904.57
2023-04-29T16:04:43.423Z,99907.73
2023-04-29T16:07:11.619Z,99912.23
2023-04-29T16:09:39.459Z,99915.79
2023-04-29T16:12:08.630Z,99909.77
2023-04-29T16:14:36.401Z,99915.08
2023-04-29T16:17:05.645Z,99916.63
2023-04-29T16:19:36.820Z,99918.23
2023-04-29T16:22:05.590Z,99923.91
2023-04-29T16:24:33.615Z,99922.19
2023-04-29T16:27:01.504Z,99929.54
2023-04-29T16:29:29.344Z,99933.91
2023-04-29T16:31:57.565Z,99931.98
2023-04-29T16:34:25.357Z,99933.85
2023-04-29T16:36:53.151Z,99936.85
2023-04-29T16:39:20.888Z,99945.19
2023-04-29T16:41:48.666Z,99953.67
2023-04-29T16:44:16.401Z,99954.05
2023-04-29T16:46:45.243Z,99955.48
2023-04-29T16:49:14.232Z,99962.48
2023-04-29T16:51:42.109Z,99966.95
2023-04-29T16:54:09.857Z,99970.57
2023-04-29T16:56:37.623Z,99971.60
2023-04-29T16:59:05.838Z,99972.98
2023-04-29T17:01:33.770Z,99973.27
2023-04-29T17:04:01.657Z,99975.95
2023-04-29T17:06:30.065Z,99976.86
2023-04-29T17:08:58.261Z,99978.08
2023-04-29T17:11:26.092Z,99982.34
2023-04-29T17:13:54.341Z,99982.23
2023-04-29T17:16:22.316Z,99982.98
2023-04-29T17:18:50.178Z,99984.70
2023-04-29T17:21:18.325Z,99989.15
2023-04-29T17:23:46.504Z,99992.77
2023-04-29T17:26:14.291Z,99998.99
2023-04-29T17:28:42.289Z,100003.80
2023-04-29T17:31:10.541Z,100002.10
2023-04-29T17:33:39.842Z,100015.73
2023-04-29T17:36:07.723Z,100013.94
2023-04-29T17:38:35.529Z,100013.85
2023-04-29T17:41:03.662Z,100018.96
2023-04-29T17:43:35.514Z,100026.05
2023-04-29T17:46:03.793Z,100035.60
2023-04-29T17:48:32.485Z,100037.11
2023-04-29T17:51:02.116Z,100040.88
2023-04-29T17:53:29.914Z,100041.00
2023-04-29T17:55:58.646Z,100041.90
2023-04-29T17:58:28.921Z,100047.51
2023-04-29T18:00:57.252Z,100048.25
2023-04-29T18:03:27.375Z,100051.91
2023-04-29T18:05:55.767Z,100055.89
2023-04-29T18:08:23.725Z,100058.83
2023-04-29T18:10:51.600Z,100065.96
2023-04-29T18:13:19.627Z,100065.70
2023-04-29T18:15:47.783Z,100069.10
2023-04-29T18:18:15.643Z,100074.25
2023-04-29T18:20:44.054Z,100074.16
2023-04-29T18:23:12.223Z,100076.60
2023-04-29T18:25:40.057Z,100078.84
2023-04-29T18:30:41.380Z,100086.66
2023-04-29T18:33:09.215Z,100092.84
2023-04-29T18:35:37.901Z,100092.36
2023-04-29T18:38:06.235Z,100098.84
2023-04-29T18:40:36.152Z,100105.67
2023-04-29T18:43:03.885Z,100110.22
2023-04-29T18:45:31.700Z,100114.42
2023-04-29T18:47:59.564Z,100118.59
2023-04-29T18:50:27.730Z,100118.33
2023-04-29T18:52:56.416Z,100121.13
2023-04-29T18:55:25.203Z,100124.06
2023-04-29T18:57:53.330Z,100126.34
2023-04-29T19:00:21.888Z,100129.59
2023-04-29T19:02:49.929Z,100132.81
2023-04-29T19:05:17.728Z,100131.43
2023-04-29T19:07:45.756Z,100133.16
2023-04-29T19:10:13.730Z,100136.31
2023-04-29T19:12:41.649Z,100139.13
2023-04-29T19:15:09.917Z,100140.64
2023-04-29T19:17:37.732Z,100151.59
2023-04-29T19:20:06.360Z,100147.02
2023-04-29T19:22:34.255Z,100149.61
2023-04-29T19:25:02.440Z,100155.11
2023-04-29T19:27:30.637Z,100160.02
2023-04-29T19:29:58.494Z,100156.33
2023-04-29T19:32:27.614Z,100161.34
2023-04-29T19:34:56.640Z,100164.59
2023-04-29T19:37:24.606Z,100165.89
2023-04-29T19:39:52.859Z,100171.13
2023-04-29T19:42:20.987Z,100167.55
2023-04-29T19:44:48.836Z,100170.34
2023-04-29T19:47:16.609Z,100168.33
2023-04-29T19:49:44.412Z,100171.16
2023-04-29T19:52:12.157Z,100171.45
2023-04-29T19:54:40.906Z,100173.13
2023-04-29T19:57:08.843Z,100169.36
2023-04-29T19:59:36.625Z,100170.52
2023-04-29T20:02:04.493Z,100172.53
2023-04-29T20:04:32.345Z,100173.20
2023-04-29T20:07:00.199Z,100176.63
2023-04-29T20:09:28.104Z,100183.27
2023-04-29T20:11:56.453Z,100186.98
2023-04-29T20:14:24.513Z,100187.76
2023-04-29T20:19:21.024Z,100194.20
2023-04-29T20:21:48.788Z,100194.27
2023-04-29T20:24:16.662Z,100202.31
2023-04-29T20:26:44.602Z,100202.73
2023-04-29T20:29:12.395Z,100203.05
2023-04-29T20:31:40.420Z,100204.30
2023-04-29T20:34:08.277Z,100204.61
2023-04-29T20:36:37.709Z,100207.09
2023-04-29T20:39:06.844Z,100207.05
2023-04-29T20:41:35.473Z,100209.38
2023-04-29T20:44:03.356Z,100207.02
2023-04-29T20:46:31.809Z,100213.66
2023-04-29T20:48:59.613Z,100211.73
2023-04-29T20:51:27.763Z,100215.77
2023-04-29T20:53:55.571Z,100216.97
2023-04-29T20:56:23.495Z,100217.97
2023-04-29T20:58:51.285Z,100221.73
2023-04-29T21:01:19.534Z,100220.52
2023-04-29T21:03:47.491Z,100226.34
2023-04-29T21:06:15.621Z,100234.14
2023-04-29T21:08:44.053Z,100236.06
2023-04-29T21:11:12.296Z,100239.00
2023-04-29T21:13:40.040Z,100244.01
2023-04-29T21:16:07.964Z,100247.09
2023-04-29T21:18:35.755Z,100253.21
2023-04-29T21:21:03.600Z,100257.42
2023-04-29T21:23:31.546Z,100261.98
2023-04-29T21:25:59.772Z,100262.60
2023-04-29T21:28:27.864Z,100267.62
2023-04-29T21:30:55.857Z,100274.30
2023-04-29T21:33:23.946Z,100276.34
2023-04-29T21:35:51.996Z,100281.34
2023-04-29T21:38:20.970Z,100280.29
2023-04-29T21:40:49.133Z,100282.40
2023-04-29T21:43:17.592Z,100284.64
2023-04-29T21:45:45.711Z,100292.31
2023-04-29T21:48:15.757Z,100291.37
2023-04-29T21:50:44.455Z,100290.54
2023-04-29T21:53:15.864Z,100291.36
2023-04-29T21:55:44.398Z,100294.52
2023-04-29T21:58:12.639Z,100294.84
2023-04-29T22:00:40.892Z,100296.90
2023-04-29T22:03:09.488Z,100301.41
2023-04-29T22:05:37.695Z,100301.58
2023-04-29T22:08:07.406Z,100305.65
2023-04-29T22:10:35.439Z,100309.84
2023-04-29T22:13:03.368Z,100304.94
2023-04-29T22:15:31.209Z,100300.83
2023-04-29T22:17:59.052Z,100305.34
2023-04-29T22:20:27.424Z,100309.12
2023-04-29T22:22:55.292Z,100313.00
2023-04-29T22:25:23.116Z,100313.21
2023-04-29T22:27:51.945Z,100317.73
2023-04-29T22:30:21.016Z,100320.40
2023-04-29T22:32:49.010Z,100323.14
2023-04-29T22:35:17.088Z,100328.51
2023-04-29T22:37:45.210Z,100331.83
2023-04-29T22:40:13.828Z,100335.88
2023-04-29T22:42:42.943Z,100336.09
2023-04-29T22:45:12.452Z,100338.39
2023-04-29T22:47:40.496Z,100341.34
2023-04-29T22:50:08.757Z,100340.83
2023-04-29T22:52:36.698Z,100344.82
2023-04-29T22:55:04.733Z,100348.66
2023-04-29T22:57:32.639Z,100350.05
2023-04-29T23:00:00.645Z,100352.75
2023-04-29T23:02:29.501Z,100352.84
2023-04-29T23:04:58.753Z,100353.28
2023-04-29T23:07:27.158Z,100354.08
2023-04-29T23:09:55.743Z,100351.62
2023-04-29T23:12:25.101Z,100356.70
2023-04-29T23:14:53.100Z,100361.39
2023-04-29T23:17:20.870Z,100362.45
2023-04-29T23:19:48.640Z,100362.80
2023-04-29T23:22:17.101Z,100364.86
2023-04-29T23:24:44.928Z,100365.65
2023-04-29T23:27:12.647Z,100364.00
2023-04-29T23:29:41.670Z,100370.13
2023-04-29T23:32:09.925Z,100365.11
2023-04-29T23:34:37.834Z,100371.10
2023-04-29T23:37:05.651Z,100372.90
2023-04-29T23:39:34.313Z,100370.36
2023-04-29T23:42:03.041Z,100372.50
2023-04-29T23:44:31.408Z,100373.78
2023-04-29T23:46:59.152Z,100373.06
2023-04-29T23:49:27.426Z,100369.90
2023-04-29T23:51:55.129Z,100374.92
2023-04-29T23:54:23.222Z,100369.88
2023-04-29T23:56:51.409Z,100370.72
2023-04-29T23:59:19.214Z,100374.48
